createdAt,value
2017-07-10T00:00:54.591Z,1003.61
2017-07-10T00:01:54.570Z,1003.62
2017-07-10T00:02:54.550Z,1003.61
2017-07-10T00:03:54.532Z,1003.64
2017-07-10T00:04:54.514Z,1003.6
2017-07-10T00:05:54.491Z,1003.58
2017-07-10T00:06:54.524Z,1003.54
2017-07-10T00:07:54.453Z,1003.59
2017-07-10T00:08:54.433Z,1003.6
2017-07-10T00:09:54.414Z,1003.64
2017-07-10T00:10:54.391Z,1003.63
2017-07-10T00:11:54.374Z,1003.59
2017-07-10T00:12:54.354Z,1003.57
2017-07-10T00:13:54.336Z,1003.58
2017-07-10T00:14:54.316Z,1003.55
2017-07-10T00:15:54.295Z,1003.57
2017-07-10T00:16:54.276Z,1003.57
2017-07-10T00:17:54.256Z,1003.53
2017-07-10T00:18:54.237Z,1003.54
2017-07-10T00:19:54.216Z,1003.58
2017-07-10T00:20:54.197Z,1003.59
2017-07-10T00:21:54.178Z,1003.52
2017-07-10T00:22:54.158Z,1003.55
2017-07-10T00:23:54.137Z,1003.54
2017-07-10T00:24:54.167Z,1003.54
2017-07-10T00:25:54.097Z,1003.55
2017-07-10T00:26:54.080Z,1003.57
2017-07-10T00:27:54.059Z,1003.58
2017-07-10T00:28:54.039Z,1003.57
2017-07-10T00:29:54.020Z,1003.51
2017-07-10T00:30:53.999Z,1003.48
2017-07-10T00:31:53.982Z,1003.49
2017-07-10T00:32:53.961Z,1003.48
2017-07-10T00:33:53.941Z,1003.5
2017-07-10T00:34:53.919Z,1003.49
2017-07-10T00:35:53.905Z,1003.54
2017-07-10T00:36:53.885Z,1003.59
2017-07-10T00:37:53.862Z,1003.59
2017-07-10T00:38:53.843Z,1003.59
2017-07-10T00:39:53.822Z,1003.62
2017-07-10T00:40:53.803Z,1003.58
2017-07-10T00:41:53.781Z,1003.6
2017-07-10T00:42:53.762Z,1003.59
2017-07-10T00:43:53.744Z,1003.6
2017-07-10T00:44:53.724Z,1003.53
2017-07-10T00:45:53.703Z,1003.59
2017-07-10T00:46:53.684Z,1003.56
2017-07-10T00:47:53.664Z,1003.51
2017-07-10T00:48:53.646Z,1003.55
2017-07-10T00:49:53.625Z,1003.52
2017-07-10T00:50:53.605Z,1003.51
2017-07-10T00:51:53.586Z,1003.53
2017-07-10T00:52:53.569Z,1003.48
2017-07-10T00:53:53.552Z,1003.49
2017-07-10T00:54:53.526Z,1003.48
2017-07-10T00:55:53.508Z,1003.48
2017-07-10T00:56:53.485Z,1003.46
2017-07-10T00:57:53.467Z,1003.49
2017-07-10T00:58:53.452Z,1003.46
2017-07-10T00:59:53.428Z,1003.42
2017-07-10T01:00:53.409Z,1003.45
2017-07-10T01:01:53.388Z,1003.42
2017-07-10T01:02:53.368Z,1003.39
2017-07-10T01:03:53.348Z,1003.44
2017-07-10T01:04:53.328Z,1003.43
2017-07-10T01:05:53.308Z,1003.36
2017-07-10T01:06:53.288Z,1003.39
2017-07-10T01:07:53.267Z,1003.38
2017-07-10T01:08:53.249Z,1003.33
2017-07-10T01:09:53.229Z,1003.31
2017-07-10T01:10:53.208Z,1003.33
2017-07-10T01:11:53.189Z,1003.32
2017-07-10T01:12:53.170Z,1003.32
2017-07-10T01:13:53.149Z,1003.29
2017-07-10T01:14:53.129Z,1003.21
2017-07-10T01:15:53.113Z,1003.22
2017-07-10T01:16:53.089Z,1003.17
2017-07-10T01:17:53.070Z,1003.15
2017-07-10T01:18:53.050Z,1003.08
2017-07-10T01:19:53.031Z,1003.12
2017-07-10T01:20:53.264Z,1003.09
2017-07-10T01:21:52.991Z,1003.14
2017-07-10T01:22:52.971Z,1003.1
2017-07-10T01:23:52.950Z,1003.1
2017-07-10T01:24:52.933Z,1003.09
2017-07-10T01:25:52.912Z,1003.1
2017-07-10T01:26:52.893Z,1003.03
2017-07-10T01:27:52.875Z,1003.03
2017-07-10T01:28:52.856Z,1003.03
2017-07-10T01:29:52.833Z,1003.05
2017-07-10T01:30:52.812Z,1003.05
2017-07-10T01:31:52.793Z,1003.03
2017-07-10T01:32:52.774Z,1003.07
2017-07-10T01:33:52.752Z,1003.06
2017-07-10T01:34:52.733Z,1003.09
2017-07-10T01:35:52.713Z,1003.09
2017-07-10T01:36:52.695Z,1003.07
2017-07-10T01:37:52.677Z,1003.05
2017-07-10T01:38:52.656Z,1003.01
2017-07-10T01:39:52.637Z,1003.03
2017-07-10T01:40:52.663Z,1002.98
2017-07-10T01:41:52.593Z,1003
2017-07-10T01:42:52.575Z,1002.99
2017-07-10T01:43:52.559Z,1003.02
2017-07-10T01:44:52.537Z,1002.99
2017-07-10T01:45:52.515Z,1002.95
2017-07-10T01:46:52.498Z,1002.93
2017-07-10T01:47:52.484Z,1002.89
2017-07-10T01:48:52.456Z,1002.9
2017-07-10T01:49:52.437Z,1002.89
2017-07-10T01:50:52.417Z,1002.82
2017-07-10T01:51:52.396Z,1002.89
2017-07-10T01:52:52.382Z,1002.86
2017-07-10T01:53:52.359Z,1002.86
2017-07-10T01:54:52.336Z,1002.88
2017-07-10T01:55:52.317Z,1002.91
2017-07-10T01:56:52.298Z,1002.9
2017-07-10T01:57:52.279Z,1002.95
2017-07-10T01:58:52.257Z,1002.9
2017-07-10T01:59:52.238Z,1002.93
2017-07-10T02:00:52.219Z,1002.93
2017-07-10T02:01:52.200Z,1003
2017-07-10T02:02:52.178Z,1002.96
2017-07-10T02:03:52.163Z,1002.95
2017-07-10T02:04:52.138Z,1002.95
2017-07-10T02:05:52.124Z,1002.98
2017-07-10T02:06:52.100Z,1002.93
2017-07-10T02:07:52.079Z,1002.93
2017-07-10T02:08:52.059Z,1002.9
2017-07-10T02:09:52.037Z,1002.88
2017-07-10T02:10:52.019Z,1002.86
2017-07-10T02:11:52.249Z,1002.84
2017-07-10T02:12:51.980Z,1002.85
2017-07-10T02:13:51.959Z,1002.84
2017-07-10T02:14:51.939Z,1002.85
2017-07-10T02:15:51.919Z,1002.9
2017-07-10T02:16:51.899Z,1002.88
2017-07-10T02:17:51.881Z,1002.89
2017-07-10T02:18:51.864Z,1002.86
2017-07-10T02:19:51.838Z,1002.89
2017-07-10T02:20:51.818Z,1002.9
2017-07-10T02:21:51.800Z,1002.87
2017-07-10T02:22:51.782Z,1002.92
2017-07-10T02:23:51.761Z,1002.94
2017-07-10T02:24:51.740Z,1002.88
2017-07-10T02:25:51.721Z,1002.92
2017-07-10T02:26:51.702Z,1002.89
2017-07-10T02:27:51.685Z,1002.9
2017-07-10T02:28:51.659Z,1002.92
2017-07-10T02:29:51.640Z,1002.91
2017-07-10T02:30:51.621Z,1002.89
2017-07-10T02:31:51.599Z,1002.89
2017-07-10T02:32:51.580Z,1002.89
2017-07-10T02:33:51.562Z,1002.83
2017-07-10T02:34:51.539Z,1002.87
2017-07-10T02:35:51.520Z,1002.87
2017-07-10T02:36:51.500Z,1002.84
2017-07-10T02:37:51.480Z,1002.88
2017-07-10T02:38:51.459Z,1002.86
2017-07-10T02:39:51.442Z,1002.88
2017-07-10T02:40:51.420Z,1002.85
2017-07-10T02:41:51.401Z,1002.87
2017-07-10T02:42:51.380Z,1002.86
2017-07-10T02:43:51.363Z,1002.9
2017-07-10T02:44:51.340Z,1002.86
2017-07-10T02:45:51.321Z,1002.87
2017-07-10T02:46:51.300Z,1002.87
2017-07-10T02:47:51.281Z,1002.86
2017-07-10T02:48:51.263Z,1002.88
2017-07-10T02:49:51.244Z,1002.87
2017-07-10T02:50:51.221Z,1002.88
2017-07-10T02:51:51.201Z,1002.84
2017-07-10T02:52:51.181Z,1002.82
2017-07-10T02:53:51.161Z,1002.85
2017-07-10T02:54:51.141Z,1002.86
2017-07-10T02:55:51.121Z,1002.9
2017-07-10T02:56:51.101Z,1002.84
2017-07-10T02:57:51.080Z,1002.87
2017-07-10T02:58:51.112Z,1002.84
2017-07-10T02:59:51.041Z,1002.83
2017-07-10T03:00:51.021Z,1002.84
2017-07-10T03:01:51.062Z,1002.88
2017-07-10T03:02:50.980Z,1002.9
2017-07-10T03:03:50.960Z,1002.83
2017-07-10T03:04:50.940Z,1002.85
2017-07-10T03:05:50.920Z,1002.9
2017-07-10T03:06:50.905Z,1002.89
2017-07-10T03:07:50.884Z,1002.83
2017-07-10T03:08:50.861Z,1002.81
2017-07-10T03:09:50.839Z,1002.79
2017-07-10T03:10:51.272Z,1002.78
2017-07-10T03:11:50.799Z,1002.83
2017-07-10T03:12:50.780Z,1002.74
2017-07-10T03:13:50.760Z,1002.75
2017-07-10T03:14:50.741Z,1002.72
2017-07-10T03:15:50.723Z,1002.71
2017-07-10T03:16:50.699Z,1002.64
2017-07-10T03:17:50.679Z,1002.66
2017-07-10T03:18:50.659Z,1002.63
2017-07-10T03:19:50.639Z,1002.66
2017-07-10T03:20:50.620Z,1002.61
2017-07-10T03:21:50.601Z,1002.62
2017-07-10T03:22:50.579Z,1002.63
2017-07-10T03:23:50.560Z,1002.6
2017-07-10T03:24:50.540Z,1002.58
2017-07-10T03:25:50.520Z,1002.59
2017-07-10T03:26:50.498Z,1002.53
2017-07-10T03:27:50.481Z,1002.56
2017-07-10T03:28:50.461Z,1002.51
2017-07-10T03:29:50.488Z,1002.46
2017-07-10T03:30:50.419Z,1002.42
2017-07-10T03:31:50.400Z,1002.47
2017-07-10T03:32:50.380Z,1002.37
2017-07-10T03:33:50.359Z,1002.36
2017-07-10T03:34:50.389Z,1002.39
2017-07-10T03:35:50.324Z,1002.39
2017-07-10T03:36:50.450Z,1002.43
2017-07-10T03:37:50.279Z,1002.42
2017-07-10T03:38:50.257Z,1002.35
2017-07-10T03:39:50.238Z,1002.36
2017-07-10T03:40:50.217Z,1002.33
2017-07-10T03:41:50.198Z,1002.33
2017-07-10T03:42:50.179Z,1002.33
2017-07-10T03:43:50.213Z,1002.35
2017-07-10T03:44:50.138Z,1002.3
2017-07-10T03:45:50.121Z,1002.26
2017-07-10T03:46:50.147Z,1002.28
2017-07-10T03:47:50.078Z,1002.21
2017-07-10T03:48:50.057Z,1002.21
2017-07-10T03:49:50.044Z,1002.27
2017-07-10T03:50:50.019Z,1002.22
2017-07-10T03:51:49.998Z,1002.22
2017-07-10T03:52:49.978Z,1002.24
2017-07-10T03:53:49.957Z,1002.24
2017-07-10T03:54:49.942Z,1002.27
2017-07-10T03:55:49.917Z,1002.27
2017-07-10T03:56:49.898Z,1002.3
2017-07-10T03:57:49.882Z,1002.27
2017-07-10T03:58:49.857Z,1002.31
2017-07-10T03:59:49.841Z,1002.3
2017-07-10T04:00:49.817Z,1002.24
2017-07-10T04:01:49.802Z,1002.26
2017-07-10T04:02:49.780Z,1002.26
2017-07-10T04:03:49.759Z,1002.24
2017-07-10T04:04:49.736Z,1002.25
2017-07-10T04:05:49.719Z,1002.22
2017-07-10T04:06:49.699Z,1002.2
2017-07-10T04:07:49.679Z,1002.22
2017-07-10T04:08:49.659Z,1002.19
2017-07-10T04:09:49.638Z,1002.18
2017-07-10T04:10:49.616Z,1002.15
2017-07-10T04:11:49.597Z,1002.21
2017-07-10T04:12:49.580Z,1002.12
2017-07-10T04:13:49.561Z,1002.19
2017-07-10T04:14:49.538Z,1002.12
2017-07-10T04:15:49.523Z,1002.11
2017-07-10T04:16:49.501Z,1002.14
2017-07-10T04:17:49.478Z,1002.1
2017-07-10T04:18:49.457Z,1002.11
2017-07-10T04:19:49.438Z,1002.06
2017-07-10T04:20:49.419Z,1001.99
2017-07-10T04:21:49.397Z,1001.99
2017-07-10T04:22:49.380Z,1002.01
2017-07-10T04:23:49.355Z,1001.99
2017-07-10T04:24:49.339Z,1002.02
2017-07-10T04:25:49.321Z,1002.01
2017-07-10T04:26:49.299Z,1001.99
2017-07-10T04:27:49.287Z,1002
2017-07-10T04:28:49.308Z,1001.98
2017-07-10T04:29:49.240Z,1002.02
2017-07-10T04:30:49.221Z,1001.97
2017-07-10T04:31:49.203Z,1001.99
2017-07-10T04:32:49.180Z,1001.99
2017-07-10T04:33:49.159Z,1001.98
2017-07-10T04:34:49.140Z,1001.97
2017-07-10T04:35:49.125Z,1001.99
2017-07-10T04:36:49.099Z,1002.03
2017-07-10T04:37:49.081Z,1002.03
2017-07-10T04:38:49.066Z,1002
2017-07-10T04:39:49.042Z,1001.99
2017-07-10T04:40:49.021Z,1002.05
2017-07-10T04:41:49.001Z,1002.01
2017-07-10T04:42:48.982Z,1001.97
2017-07-10T04:43:48.962Z,1002.02
2017-07-10T04:44:48.941Z,1002
2017-07-10T04:45:48.925Z,1001.97
2017-07-10T04:46:48.903Z,1001.98
2017-07-10T04:47:48.884Z,1001.99
2017-07-10T04:48:48.861Z,1002
2017-07-10T04:49:48.844Z,1002.08
2017-07-10T04:50:48.822Z,1002.03
2017-07-10T04:51:48.803Z,1002.03
2017-07-10T04:52:48.782Z,1002.05
2017-07-10T04:53:48.762Z,1002.04
2017-07-10T04:54:48.743Z,1002.03
2017-07-10T04:55:48.723Z,1001.98
2017-07-10T04:56:48.704Z,1001.98
2017-07-10T04:57:48.685Z,1001.97
2017-07-10T04:58:48.668Z,1001.98
2017-07-10T04:59:48.645Z,1001.96
2017-07-10T05:00:48.625Z,1001.95
2017-07-10T05:01:48.605Z,1001.98
2017-07-10T05:02:48.587Z,1001.98
2017-07-10T05:03:48.565Z,1001.97
2017-07-10T05:04:48.547Z,1001.96
2017-07-10T05:05:48.525Z,1001.96
2017-07-10T05:06:48.504Z,1001.92
2017-07-10T05:07:48.488Z,1001.96
2017-07-10T05:08:48.464Z,1001.96
2017-07-10T05:09:48.445Z,1002
2017-07-10T05:10:48.432Z,1002.01
2017-07-10T05:11:48.406Z,1001.95
2017-07-10T05:12:48.384Z,1001.97
2017-07-10T05:13:48.368Z,1001.97
2017-07-10T05:14:48.346Z,1001.93
2017-07-10T05:15:48.327Z,1001.97
2017-07-10T05:16:48.305Z,1001.95
2017-07-10T05:17:48.287Z,1001.98
2017-07-10T05:18:48.268Z,1001.99
2017-07-10T05:19:48.247Z,1001.94
2017-07-10T05:20:48.227Z,1001.95
2017-07-10T05:21:48.208Z,1001.95
2017-07-10T05:22:48.188Z,1001.97
2017-07-10T05:23:48.167Z,1001.96
2017-07-10T05:24:48.149Z,1001.94
2017-07-10T05:25:48.177Z,1001.91
2017-07-10T05:26:48.109Z,1001.9
2017-07-10T05:27:48.089Z,1001.91
2017-07-10T05:28:48.071Z,1001.92
2017-07-10T05:29:48.049Z,1001.87
2017-07-10T05:30:48.026Z,1001.84
2017-07-10T05:31:48.010Z,1001.89
2017-07-10T05:32:47.988Z,1001.83
2017-07-10T05:33:47.970Z,1001.82
2017-07-10T05:34:47.949Z,1001.82
2017-07-10T05:35:47.928Z,1001.86
2017-07-10T05:36:47.958Z,1001.88
2017-07-10T05:37:47.891Z,1001.84
2017-07-10T05:38:47.869Z,1001.87
2017-07-10T05:39:47.850Z,1001.87
2017-07-10T05:40:47.829Z,1001.91
2017-07-10T05:41:47.807Z,1001.91
2017-07-10T05:42:47.790Z,1001.95
2017-07-10T05:43:47.776Z,1001.98
2017-07-10T05:44:47.806Z,1002.02
2017-07-10T05:45:47.729Z,1002.14
2017-07-10T05:46:47.713Z,1002.05
2017-07-10T05:47:47.694Z,1002.14
2017-07-10T05:48:47.670Z,1002.1
2017-07-10T05:49:47.652Z,1002.13
2017-07-10T05:50:47.629Z,1002.09
2017-07-10T05:51:47.611Z,1002.13
2017-07-10T05:52:47.593Z,1002.14
2017-07-10T05:53:47.570Z,1002.12
2017-07-10T05:54:47.553Z,1002.16
2017-07-10T05:55:47.532Z,1002.16
2017-07-10T05:56:47.517Z,1002.21
2017-07-10T05:57:47.490Z,1002.21
2017-07-10T05:58:47.479Z,1002.25
2017-07-10T05:59:47.450Z,1002.24
2017-07-10T06:00:47.432Z,1002.25
2017-07-10T06:01:47.411Z,1002.26
2017-07-10T06:02:47.390Z,1002.25
2017-07-10T06:03:47.371Z,1002.29
2017-07-10T06:04:47.351Z,1002.3
2017-07-10T06:05:47.340Z,1002.28
2017-07-10T06:06:47.314Z,1002.31
2017-07-10T06:07:47.292Z,1002.31
2017-07-10T06:08:47.272Z,1002.32
2017-07-10T06:09:47.256Z,1002.31
2017-07-10T06:10:47.231Z,1002.32
2017-07-10T06:11:47.211Z,1002.32
2017-07-10T06:12:47.190Z,1002.29
2017-07-10T06:13:47.170Z,1002.26
2017-07-10T06:14:47.152Z,1002.27
2017-07-10T06:15:47.133Z,1002.18
2017-07-10T06:16:47.112Z,1002.2
2017-07-10T06:17:47.092Z,1002.17
2017-07-10T06:18:47.071Z,1002.15
2017-07-10T06:19:47.052Z,1002.15
2017-07-10T06:20:47.032Z,1002.15
2017-07-10T06:21:47.060Z,1002.18
2017-07-10T06:22:46.995Z,1002.12
2017-07-10T06:23:46.972Z,1002.11
2017-07-10T06:24:46.952Z,1002.07
2017-07-10T06:25:46.932Z,1002.08
2017-07-10T06:26:46.911Z,1002.09
2017-07-10T06:27:46.891Z,1002.04
2017-07-10T06:28:46.873Z,1002.08
2017-07-10T06:29:46.859Z,1002.02
2017-07-10T06:30:46.838Z,1002.03
2017-07-10T06:31:46.813Z,1002.02
2017-07-10T06:32:46.795Z,1002.01
2017-07-10T06:33:46.773Z,1002
2017-07-10T06:34:46.755Z,1002.06
2017-07-10T06:35:46.735Z,1002.07
2017-07-10T06:36:46.715Z,1002.02
2017-07-10T06:37:46.695Z,1002.01
2017-07-10T06:38:46.677Z,1002.02
2017-07-10T06:39:46.658Z,1002.02
2017-07-10T06:40:46.636Z,1002.06
2017-07-10T06:41:46.620Z,1002.07
2017-07-10T06:42:46.593Z,1002.11
2017-07-10T06:43:46.576Z,1002.12
2017-07-10T06:44:46.556Z,1002.18
2017-07-10T06:45:46.537Z,1002.2
2017-07-10T06:46:46.518Z,1002.19
2017-07-10T06:47:46.497Z,1002.22
2017-07-10T06:48:46.480Z,1002.2
2017-07-10T06:49:46.461Z,1002.22
2017-07-10T06:50:46.439Z,1002.25
2017-07-10T06:51:46.417Z,1002.23
2017-07-10T06:52:46.400Z,1002.29
2017-07-10T06:53:46.382Z,1002.25
2017-07-10T06:54:46.362Z,1002.28
2017-07-10T06:55:46.339Z,1002.31
2017-07-10T06:56:46.326Z,1002.31
2017-07-10T06:57:46.300Z,1002.29
2017-07-10T06:58:46.279Z,1002.3
2017-07-10T06:59:46.259Z,1002.26
2017-07-10T07:00:46.242Z,1002.26
2017-07-10T07:01:46.221Z,1002.23
2017-07-10T07:02:46.202Z,1002.2
2017-07-10T07:03:46.183Z,1002.21
2017-07-10T07:04:46.163Z,1002.21
2017-07-10T07:05:46.195Z,1002.22
2017-07-10T07:06:46.127Z,1002.17
2017-07-10T07:07:46.112Z,1002.22
2017-07-10T07:08:46.087Z,1002.2
2017-07-10T07:09:46.066Z,1002.17
2017-07-10T07:10:46.048Z,1002.14
2017-07-10T07:11:46.029Z,1002.16
2017-07-10T07:12:46.012Z,1002.1
2017-07-10T07:13:45.992Z,1002.1
2017-07-10T07:14:45.972Z,1002.05
2017-07-10T07:15:45.954Z,1002.06
2017-07-10T07:16:45.934Z,1002.05
2017-07-10T07:17:45.924Z,1002.06
2017-07-10T07:18:45.897Z,1002.01
2017-07-10T07:19:45.878Z,1002.03
2017-07-10T07:20:45.858Z,1002.01
2017-07-10T07:21:45.843Z,1002
2017-07-10T07:22:45.824Z,1002.02
2017-07-10T07:23:45.800Z,1001.99
2017-07-10T07:24:45.785Z,1001.99
2017-07-10T07:25:45.770Z,1001.97
2017-07-10T07:26:45.745Z,1001.97
2017-07-10T07:27:45.726Z,1001.93
2017-07-10T07:28:45.704Z,1002
2017-07-10T07:29:45.690Z,1001.94
2017-07-10T07:30:45.671Z,1001.95
2017-07-10T07:31:45.655Z,1001.92
2017-07-10T07:32:45.634Z,1001.9
2017-07-10T07:33:45.615Z,1001.87
2017-07-10T07:34:45.597Z,1001.92
2017-07-10T07:35:45.572Z,1001.92
2017-07-10T07:36:45.557Z,1001.91
2017-07-10T07:37:45.543Z,1001.89
2017-07-10T07:38:45.521Z,1001.94
2017-07-10T07:39:45.501Z,1001.94
2017-07-10T07:40:45.530Z,1001.91
2017-07-10T07:41:45.468Z,1001.95
2017-07-10T07:42:45.447Z,1001.94
2017-07-10T07:43:45.430Z,1001.95
2017-07-10T07:44:45.409Z,1001.91
2017-07-10T07:45:45.384Z,1001.92
2017-07-10T07:46:45.376Z,1001.94
2017-07-10T07:47:45.349Z,1001.95
2017-07-10T07:48:45.334Z,1001.88
2017-07-10T07:49:45.314Z,1001.94
2017-07-10T07:50:45.295Z,1001.92
2017-07-10T07:51:45.281Z,1001.98
2017-07-10T07:52:45.258Z,1001.95
2017-07-10T07:53:45.238Z,1001.99
2017-07-10T07:54:45.222Z,1001.99
2017-07-10T07:55:45.200Z,1001.95
2017-07-10T07:56:45.183Z,1001.93
2017-07-10T07:57:45.164Z,1001.92
2017-07-10T07:58:45.144Z,1001.9
2017-07-10T07:59:45.126Z,1001.9
2017-07-10T08:00:45.104Z,1001.9
2017-07-10T08:01:45.087Z,1001.85
2017-07-10T08:02:45.273Z,1001.82
2017-07-10T08:03:45.100Z,1001.88
2017-07-10T08:04:45.036Z,1001.83
2017-07-10T08:05:45.016Z,1001.83
2017-07-10T08:06:44.996Z,1001.79
2017-07-10T08:07:44.977Z,1001.77
2017-07-10T08:08:44.956Z,1001.77
2017-07-10T08:09:44.942Z,1001.83
2017-07-10T08:10:44.918Z,1001.82
2017-07-10T08:11:44.901Z,1001.79
2017-07-10T08:12:44.881Z,1001.8
2017-07-10T08:13:44.861Z,1001.82
2017-07-10T08:14:44.843Z,1001.83
2017-07-10T08:15:44.826Z,1001.78
2017-07-10T08:16:44.805Z,1001.77
2017-07-10T08:17:44.787Z,1001.77
2017-07-10T08:18:44.770Z,1001.79
2017-07-10T08:19:44.749Z,1001.78
2017-07-10T08:20:44.735Z,1001.76
2017-07-10T08:21:44.716Z,1001.72
2017-07-10T08:22:44.694Z,1001.73
2017-07-10T08:23:44.677Z,1001.76
2017-07-10T08:24:44.659Z,1001.8
2017-07-10T08:25:44.637Z,1001.84
2017-07-10T08:26:44.617Z,1001.88
2017-07-10T08:27:44.601Z,1001.89
2017-07-10T08:28:44.579Z,1001.88
2017-07-10T08:29:44.661Z,1001.9
2017-07-10T08:30:44.547Z,1001.85
2017-07-10T08:31:44.522Z,1001.86
2017-07-10T08:32:44.511Z,1001.91
2017-07-10T08:33:44.488Z,1001.86
2017-07-10T08:34:44.467Z,1001.82
2017-07-10T08:35:44.452Z,1001.78
2017-07-10T08:36:44.430Z,1001.79
2017-07-10T08:37:44.409Z,1001.79
2017-07-10T08:38:44.393Z,1001.78
2017-07-10T08:39:44.375Z,1001.78
2017-07-10T08:40:44.355Z,1001.79
2017-07-10T08:41:44.334Z,1001.8
2017-07-10T08:42:44.320Z,1001.79
2017-07-10T08:43:44.299Z,1001.8
2017-07-10T08:44:44.281Z,1001.78
2017-07-10T08:45:44.255Z,1001.77
2017-07-10T08:46:44.242Z,1001.76
2017-07-10T08:47:44.225Z,1001.76
2017-07-10T08:48:44.207Z,1001.79
2017-07-10T08:49:44.187Z,1001.82
2017-07-10T08:50:44.169Z,1001.83
2017-07-10T08:51:44.158Z,1001.82
2017-07-10T08:52:44.127Z,1001.82
2017-07-10T08:53:44.110Z,1001.87
2017-07-10T08:54:44.102Z,1001.84
2017-07-10T08:55:44.074Z,1001.83
2017-07-10T08:56:44.055Z,1001.83
2017-07-10T08:57:44.047Z,1001.83
2017-07-10T08:58:44.015Z,1001.82
2017-07-10T08:59:44.052Z,1001.8
2017-07-10T09:00:43.981Z,1001.84
2017-07-10T09:01:43.971Z,1001.88
2017-07-10T09:02:43.963Z,1001.88
2017-07-10T09:03:43.943Z,1001.87
2017-07-10T09:04:43.903Z,1001.86
2017-07-10T09:05:43.885Z,1001.92
2017-07-10T09:06:43.871Z,1001.92
2017-07-10T09:07:43.848Z,1001.93
2017-07-10T09:08:43.832Z,1001.93
2017-07-10T09:09:43.817Z,1001.96
2017-07-10T09:10:43.800Z,1001.94
2017-07-10T09:11:43.776Z,1001.97
2017-07-10T09:12:43.805Z,1001.94
2017-07-10T09:13:43.741Z,1001.98
2017-07-10T09:14:43.728Z,1001.95
2017-07-10T09:15:43.712Z,1001.97
2017-07-10T09:16:43.741Z,1001.94
2017-07-10T09:17:43.673Z,1001.89
2017-07-10T09:18:43.661Z,1001.85
2017-07-10T09:19:43.649Z,1001.87
2017-07-10T09:20:43.612Z,1001.85
2017-07-10T09:21:43.644Z,1001.84
2017-07-10T09:22:43.577Z,1001.8
2017-07-10T09:23:43.609Z,1001.85
2017-07-10T09:24:43.540Z,1001.81
2017-07-10T09:25:43.524Z,1001.75
2017-07-10T09:26:43.508Z,1001.74
2017-07-10T09:27:43.491Z,1001.74
2017-07-10T09:28:43.473Z,1001.72
2017-07-10T09:29:43.458Z,1001.75
2017-07-10T09:30:43.437Z,1001.78
2017-07-10T09:31:43.676Z,1001.79
2017-07-10T09:32:43.402Z,1001.79
2017-07-10T09:33:43.385Z,1001.82
2017-07-10T09:34:43.371Z,1001.79
2017-07-10T09:35:43.352Z,1001.83
2017-07-10T09:36:43.338Z,1001.8
2017-07-10T09:37:43.315Z,1001.78
2017-07-10T09:38:43.303Z,1001.75
2017-07-10T09:39:43.280Z,1001.76
2017-07-10T09:40:43.261Z,1001.79
2017-07-10T09:41:43.253Z,1001.75
2017-07-10T09:42:43.231Z,1001.75
2017-07-10T09:43:43.217Z,1001.82
2017-07-10T09:44:43.195Z,1001.82
2017-07-10T09:45:43.182Z,1001.78
2017-07-10T09:46:43.167Z,1001.76
2017-07-10T09:47:43.144Z,1001.76
2017-07-10T09:48:43.233Z,1001.76
2017-07-10T09:49:43.107Z,1001.7
2017-07-10T09:50:43.108Z,1001.67
2017-07-10T09:51:43.083Z,1001.68
2017-07-10T09:52:43.064Z,1001.69
2017-07-10T09:53:43.046Z,1001.61
2017-07-10T09:54:43.086Z,1001.54
2017-07-10T09:55:43.017Z,1001.6
2017-07-10T09:56:43.000Z,1001.59
2017-07-10T09:57:42.981Z,1001.62
2017-07-10T09:58:42.970Z,1001.67
2017-07-10T09:59:42.955Z,1001.65
2017-07-10T10:00:42.935Z,1001.58
2017-07-10T10:01:42.918Z,1001.63
2017-07-10T10:02:42.903Z,1001.63
2017-07-10T10:03:42.886Z,1001.65
2017-07-10T10:04:42.873Z,1001.69
2017-07-10T10:05:42.857Z,1001.73
2017-07-10T10:06:42.842Z,1001.72
2017-07-10T10:07:42.829Z,1001.78
2017-07-10T10:08:42.816Z,1001.8
2017-07-10T10:09:42.798Z,1001.77
2017-07-10T10:10:42.785Z,1001.81
2017-07-10T10:11:42.774Z,1001.68
2017-07-10T10:12:42.809Z,1001.63
2017-07-10T10:13:42.748Z,1001.61
2017-07-10T10:14:42.737Z,1001.58
2017-07-10T10:15:42.725Z,1001.55
2017-07-10T10:16:42.712Z,1001.55
2017-07-10T10:17:42.713Z,1001.51
2017-07-10T10:18:42.687Z,1001.49
2017-07-10T10:19:42.679Z,1001.49
2017-07-10T10:20:42.822Z,1001.51
2017-07-10T10:21:42.658Z,1001.47
2017-07-10T10:22:42.695Z,1001.53
2017-07-10T10:23:42.633Z,1001.5
2017-07-10T10:24:42.630Z,1001.53
2017-07-10T10:25:42.622Z,1001.55
2017-07-10T10:26:42.606Z,1001.55
2017-07-10T10:27:42.606Z,1001.55
2017-07-10T10:28:42.587Z,1001.57
2017-07-10T10:29:42.578Z,1001.52
2017-07-10T10:30:42.568Z,1001.54
2017-07-10T10:31:42.565Z,1001.55
2017-07-10T10:32:42.550Z,1001.55
2017-07-10T10:33:42.540Z,1001.57
2017-07-10T10:34:42.529Z,1001.54
2017-07-10T10:35:42.529Z,1001.6
2017-07-10T10:36:42.517Z,1001.59
2017-07-10T10:37:42.508Z,1001.53
2017-07-10T10:38:42.497Z,1001.5
2017-07-10T10:39:42.494Z,1001.51
2017-07-10T10:40:42.480Z,1001.47
2017-07-10T10:41:42.471Z,1001.47
2017-07-10T10:42:42.467Z,1001.49
2017-07-10T10:43:42.450Z,1001.49
2017-07-10T10:44:42.441Z,1001.47
2017-07-10T10:45:42.429Z,1001.47
2017-07-10T10:46:42.419Z,1001.44
2017-07-10T10:47:42.411Z,1001.4
2017-07-10T10:48:42.395Z,1001.4
2017-07-10T10:49:42.380Z,1001.38
2017-07-10T10:50:42.371Z,1001.45
2017-07-10T10:51:42.361Z,1001.41
2017-07-10T10:52:42.346Z,1001.4
2017-07-10T10:53:42.337Z,1001.43
2017-07-10T10:54:42.321Z,1001.53
2017-07-10T10:55:42.313Z,1001.53
2017-07-10T10:56:42.300Z,1001.56
2017-07-10T10:57:42.283Z,1001.63
2017-07-10T10:58:42.273Z,1001.67
2017-07-10T10:59:42.258Z,1001.66
2017-07-10T11:00:42.245Z,1001.71
2017-07-10T11:01:42.239Z,1001.69
2017-07-10T11:02:42.269Z,1001.71
2017-07-10T11:03:42.207Z,1001.7
2017-07-10T11:04:42.196Z,1001.7
2017-07-10T11:05:42.179Z,1001.71
2017-07-10T11:06:42.165Z,1001.7
2017-07-10T11:07:42.159Z,1001.69
2017-07-10T11:08:42.142Z,1001.72
2017-07-10T11:09:42.127Z,1001.68
2017-07-10T11:10:42.161Z,1001.66
2017-07-10T11:11:42.102Z,1001.65
2017-07-10T11:12:42.089Z,1001.65
2017-07-10T11:13:42.070Z,1001.63
2017-07-10T11:14:42.064Z,1001.62
2017-07-10T11:15:42.047Z,1001.62
2017-07-10T11:16:42.035Z,1001.63
2017-07-10T11:17:42.019Z,1001.6
2017-07-10T11:18:42.006Z,1001.6
2017-07-10T11:19:41.992Z,1001.59
2017-07-10T11:20:41.978Z,1001.56
2017-07-10T11:21:41.959Z,1001.55
2017-07-10T11:22:41.947Z,1001.5
2017-07-10T11:23:41.938Z,1001.5
2017-07-10T11:24:41.919Z,1001.51
2017-07-10T11:25:41.914Z,1001.54
2017-07-10T11:26:41.892Z,1001.54
2017-07-10T11:27:41.877Z,1001.51
2017-07-10T11:28:41.868Z,1001.49
2017-07-10T11:29:41.847Z,1001.51
2017-07-10T11:30:41.834Z,1001.53
2017-07-10T11:31:41.817Z,1001.49
2017-07-10T11:32:41.803Z,1001.46
2017-07-10T11:33:41.790Z,1001.45
2017-07-10T11:34:41.773Z,1001.34
2017-07-10T11:35:41.761Z,1001.43
2017-07-10T11:36:41.746Z,1001.4
2017-07-10T11:37:41.733Z,1001.39
2017-07-10T11:38:41.716Z,1001.36
2017-07-10T11:39:41.699Z,1001.38
2017-07-10T11:40:41.690Z,1001.38
2017-07-10T11:41:41.676Z,1001.32
2017-07-10T11:42:41.660Z,1001.33
2017-07-10T11:43:41.744Z,1001.35
2017-07-10T11:44:41.631Z,1001.32
2017-07-10T11:45:41.617Z,1001.35
2017-07-10T11:46:41.603Z,1001.31
2017-07-10T11:47:41.641Z,1001.29
2017-07-10T11:48:41.574Z,1001.34
2017-07-10T11:49:41.563Z,1001.32
2017-07-10T11:50:41.549Z,1001.28
2017-07-10T11:51:41.527Z,1001.37
2017-07-10T11:52:41.518Z,1001.38
2017-07-10T11:53:41.502Z,1001.4
2017-07-10T11:54:41.492Z,1001.41
2017-07-10T11:55:41.476Z,1001.38
2017-07-10T11:56:41.462Z,1001.37
2017-07-10T11:57:41.445Z,1001.35
2017-07-10T11:58:41.431Z,1001.37
2017-07-10T11:59:41.417Z,1001.37
2017-07-10T12:00:41.408Z,1001.38
2017-07-10T12:01:41.384Z,1001.38
2017-07-10T12:02:41.369Z,1001.37
2017-07-10T12:03:41.360Z,1001.34
2017-07-10T12:04:41.343Z,1001.3
2017-07-10T12:05:41.324Z,1001.35
2017-07-10T12:06:41.312Z,1001.33
2017-07-10T12:07:41.298Z,1001.33
2017-07-10T12:08:41.288Z,1001.35